createdAt,value
2023-02-05T00:03:42.684Z,5.50
2023-02-05T00:08:44.974Z,6.10
2023-02-05T00:13:51.951Z,6.30
2023-02-05T00:18:54.737Z,6.00
2023-02-05T00:23:56.702Z,6.50
2023-02-05T00:28:59.196Z,6.80
2023-02-05T00:34:03.760Z,6.20
2023-02-05T00:39:09.097Z,5.30
2023-02-05T00:44:11.118Z,5.50
2023-02-05T00:49:13.977Z,5.30
2023-02-05T00:54:16.271Z,5.60
2023-02-05T00:59:18.291Z,5.50
2023-02-05T01:04:20.063Z,6.40
2023-02-05T01:09:23.330Z,5.40
2023-02-05T01:14:25.368Z,6.60
2023-02-05T01:19:27.594Z,5.80
2023-02-05T01:24:30.117Z,5.90
2023-02-05T01:29:32.551Z,7.70
2023-02-05T01:34:35.097Z,6.60
2023-02-05T01:39:37.542Z,6.40
2023-02-05T01:44:41.096Z,7.20
2023-02-05T01:49:46.355Z,6.00
2023-02-05T01:54:53.276Z,8.80
2023-02-05T01:59:55.714Z,8.40
2023-02-05T02:05:02.816Z,7.70
2023-02-05T02:10:06.235Z,8.60
2023-02-05T02:15:20.325Z,9.40
2023-02-05T02:20:30.303Z,9.90
2023-02-05T02:25:48.964Z,12.00
2023-02-05T02:31:06.989Z,11.80
2023-02-05T02:36:18.046Z,12.00
2023-02-05T02:41:28.630Z,13.00
2023-02-05T02:46:44.441Z,13.60
2023-02-05T02:51:51.159Z,11.80
2023-02-05T02:56:55.821Z,11.50
2023-02-05T03:02:02.554Z,9.30
2023-02-05T03:07:13.619Z,8.60
2023-02-05T03:12:16.108Z,8.30
2023-02-05T03:17:19.854Z,8.60
2023-02-05T03:22:26.000Z,9.20
2023-02-05T03:27:28.433Z,9.00
2023-02-05T03:32:46.515Z,9.20
2023-02-05T03:38:12.698Z,11.50
2023-02-05T03:43:21.208Z,10.60
2023-02-05T03:48:40.109Z,10.60
2023-02-05T03:54:05.096Z,11.60
2023-02-05T03:59:09.204Z,11.70
2023-02-05T04:04:12.705Z,13.50
2023-02-05T04:09:14.925Z,12.40
2023-02-05T04:14:17.924Z,11.20
2023-02-05T04:19:20.976Z,11.50
2023-02-05T04:24:23.216Z,11.40
2023-02-05T04:29:25.298Z,11.00
2023-02-05T04:34:28.184Z,15.60
2023-02-05T04:39:31.077Z,12.10
2023-02-05T04:44:33.025Z,10.90
2023-02-05T04:49:38.349Z,11.00
2023-02-05T04:54:40.609Z,11.50
2023-02-05T04:59:42.577Z,11.40
2023-02-05T05:04:44.491Z,12.90
2023-02-05T05:09:46.735Z,14.80
2023-02-05T05:14:48.548Z,14.40
2023-02-05T05:19:50.476Z,14.90
2023-02-05T05:24:52.511Z,13.80
2023-02-05T05:29:54.497Z,14.30
2023-02-05T05:34:57.316Z,12.20
2023-02-05T05:40:18.267Z,11.30
2023-02-05T05:45:20.280Z,11.10
2023-02-05T05:50:22.538Z,11.60
2023-02-05T05:55:24.453Z,13.40
2023-02-05T06:00:26.986Z,13.90
2023-02-05T06:05:31.548Z,14.80
2023-02-05T06:10:33.643Z,13.80
2023-02-05T06:15:35.879Z,18.00
2023-02-05T06:20:38.071Z,16.70
2023-02-05T06:25:40.493Z,18.10
2023-02-05T06:30:43.098Z,19.30
2023-02-05T06:35:44.921Z,18.80
2023-02-05T06:40:48.312Z,17.30
2023-02-05T06:45:50.306Z,15.90
2023-02-05T06:50:55.262Z,17.30
2023-02-05T06:56:00.897Z,17.60
2023-02-05T07:01:03.214Z,17.80
2023-02-05T07:06:06.394Z,16.60
2023-02-05T07:11:08.334Z,17.90
2023-02-05T07:16:10.431Z,17.50
2023-02-05T07:21:17.222Z,16.00
2023-02-05T07:26:19.131Z,15.70
2023-02-05T07:31:21.071Z,14.20
2023-02-05T07:36:23.222Z,17.60
2023-02-05T07:41:26.849Z,14.90
2023-02-05T07:46:28.965Z,12.90
2023-02-05T07:51:31.534Z,12.80
2023-02-05T07:56:33.565Z,12.20
2023-02-05T08:01:35.782Z,11.20
2023-02-05T08:06:37.593Z,10.20
2023-02-05T08:11:40.101Z,9.20
2023-02-05T08:16:42.060Z,9.70
2023-02-05T08:21:44.406Z,10.20
2023-02-05T08:26:46.320Z,10.70
2023-02-05T08:31:48.474Z,10.30
2023-02-05T08:36:50.916Z,10.00
2023-02-05T08:41:54.880Z,11.30
2023-02-05T08:46:57.979Z,10.70
2023-02-05T08:51:59.909Z,12.50
2023-02-05T08:57:02.868Z,10.70
2023-02-05T09:02:05.251Z,6.80
2023-02-05T09:07:07.170Z,6.40
2023-02-05T09:12:10.853Z,6.80
2023-02-05T09:17:14.422Z,6.30
2023-02-05T09:22:18.442Z,6.30
2023-02-05T09:27:21.123Z,6.50
2023-02-05T09:32:23.567Z,7.00
2023-02-05T09:37:25.852Z,6.90
2023-02-05T09:42:39.227Z,6.10
2023-02-05T09:48:22.629Z,6.70
2023-02-05T09:53:37.206Z,6.70
2023-02-05T09:58:46.290Z,6.00
2023-02-05T10:04:00.779Z,6.30
2023-02-05T10:09:24.969Z,7.30
2023-02-05T10:14:39.255Z,5.70
2023-02-05T10:20:07.361Z,7.00
2023-02-05T10:25:34.784Z,5.40
2023-02-05T10:30:56.753Z,3.90
2023-02-05T10:36:02.479Z,5.80
2023-02-05T10:41:12.990Z,5.40
2023-02-05T10:46:17.248Z,5.50
2023-02-05T10:51:30.938Z,6.80
2023-02-05T10:56:33.151Z,6.50
2023-02-05T11:01:38.876Z,5.10
2023-02-05T11:06:51.288Z,4.70
2023-02-05T11:12:06.983Z,4.80
2023-02-05T11:17:32.125Z,3.80
2023-02-05T11:22:37.406Z,3.60
2023-02-05T11:27:39.499Z,4.40
2023-02-05T11:32:41.670Z,3.90
2023-02-05T11:37:45.190Z,3.30
2023-02-05T11:42:55.008Z,17.70
2023-02-05T11:48:00.248Z,3.80
2023-02-05T11:53:12.450Z,3.50
2023-02-05T11:58:36.996Z,3.60
2023-02-05T12:03:39.644Z,3.30
2023-02-05T12:08:48.336Z,3.00
2023-02-05T12:14:02.196Z,3.80
2023-02-05T12:19:26.736Z,4.00
2023-02-05T12:24:51.950Z,4.70
2023-02-05T12:30:13.435Z,3.90
2023-02-05T12:35:42.763Z,4.10
2023-02-05T12:40:53.673Z,4.10
2023-02-05T12:46:16.145Z,4.20
2023-02-05T12:51:39.016Z,5.40
2023-02-05T12:57:01.822Z,5.10
2023-02-05T13:02:13.277Z,4.80
2023-02-05T13:07:29.507Z,5.80
2023-02-05T13:12:38.079Z,5.30
2023-02-05T13:17:57.746Z,5.30
2023-02-05T13:23:18.634Z,4.90
2023-02-05T13:28:41.405Z,5.40
2023-02-05T13:33:44.473Z,5.10
2023-02-05T13:39:13.702Z,5.40
2023-02-05T13:44:44.750Z,5.80
2023-02-05T13:50:05.650Z,4.60
2023-02-05T13:55:24.560Z,5.00
2023-02-05T14:00:28.471Z,4.60
2023-02-05T14:05:34.912Z,4.80
2023-02-05T14:10:42.103Z,5.20
2023-02-05T14:15:44.981Z,4.60
2023-02-05T14:20:46.853Z,46.90
2023-02-05T14:26:11.423Z,5.40
2023-02-05T14:31:47.780Z,5.20
2023-02-05T14:36:50.926Z,5.20
2023-02-05T14:41:58.590Z,5.10
2023-02-05T14:47:29.301Z,5.10
2023-02-05T14:52:42.313Z,5.00
2023-02-05T14:58:03.339Z,5.60
2023-02-05T15:03:20.090Z,6.00
2023-02-05T15:08:46.214Z,7.50
2023-02-05T15:14:36.915Z,7.10
2023-02-05T15:19:44.130Z,6.70
2023-02-05T15:24:49.375Z,5.80
2023-02-05T15:29:57.271Z,5.90
2023-02-05T15:35:12.856Z,6.80
2023-02-05T15:40:33.060Z,8.90
2023-02-05T15:45:40.385Z,9.80
2023-02-05T15:50:56.349Z,9.60
2023-02-05T15:55:59.966Z,11.40
2023-02-05T16:01:03.473Z,9.10
2023-02-05T16:06:07.228Z,10.30
2023-02-05T16:11:09.090Z,9.30
2023-02-05T16:16:23.215Z,13.70
2023-02-05T16:21:36.744Z,12.40
2023-02-05T16:26:48.667Z,11.70
2023-02-05T16:31:59.503Z,13.70
2023-02-05T16:37:05.521Z,9.70
2023-02-05T16:42:16.286Z,8.20
2023-02-05T16:47:20.151Z,8.30
2023-02-05T16:52:35.791Z,9.80
2023-02-05T16:57:39.538Z,7.90
2023-02-05T17:02:41.938Z,9.40
2023-02-05T17:07:53.249Z,10.00
2023-02-05T17:13:03.441Z,12.50
2023-02-05T17:18:30.146Z,8.40
2023-02-05T17:23:32.187Z,8.40
2023-02-05T17:28:38.205Z,7.50
2023-02-05T17:33:40.245Z,7.40
2023-02-05T17:38:42.189Z,6.60
2023-02-05T17:43:44.293Z,7.00
2023-02-05T17:48:47.238Z,6.70
2023-02-05T17:53:50.056Z,8.60
2023-02-05T17:58:53.444Z,7.60
2023-02-05T18:03:55.184Z,7.60
2023-02-05T18:08:57.293Z,7.80
2023-02-05T18:13:59.140Z,8.50
2023-02-05T18:19:01.579Z,8.60
2023-02-05T18:24:04.025Z,7.30
2023-02-05T18:29:06.630Z,7.90
2023-02-05T18:34:15.838Z,8.60
2023-02-05T18:39:17.788Z,8.60
2023-02-05T18:44:20.001Z,9.70
2023-02-05T18:49:22.916Z,8.00
2023-02-05T18:54:25.060Z,7.10
2023-02-05T18:59:28.862Z,9.10
2023-02-05T19:04:33.091Z,8.30
2023-02-05T19:09:36.627Z,9.60
2023-02-05T19:14:39.452Z,12.60
2023-02-05T19:19:41.697Z,18.70
2023-02-05T19:24:44.692Z,22.50
2023-02-05T19:29:47.885Z,16.40
2023-02-05T19:34:51.716Z,14.60
2023-02-05T19:39:54.005Z,15.60
2023-02-05T19:44:56.531Z,15.70
2023-02-05T19:49:58.350Z,20.90
2023-02-05T19:55:02.063Z,16.50
2023-02-05T20:00:04.651Z,16.80
2023-02-05T20:05:14.025Z,16.00
2023-02-05T20:10:16.280Z,14.80
2023-02-05T20:15:18.495Z,16.20
2023-02-05T20:20:32.836Z,16.20
2023-02-05T20:25:35.461Z,16.70
2023-02-05T20:30:56.150Z,31.60
2023-02-05T20:36:03.817Z,25.70
2023-02-05T20:41:17.721Z,19.70
2023-02-05T20:46:19.877Z,23.70
2023-02-05T20:51:23.111Z,16.90
2023-02-05T20:56:27.508Z,16.70
2023-02-05T21:01:32.168Z,13.90
2023-02-05T21:06:37.409Z,18.40
2023-02-05T21:11:40.214Z,15.60
2023-02-05T21:16:42.758Z,17.40
2023-02-05T21:21:45.724Z,19.00
2023-02-05T21:26:49.435Z,19.10
2023-02-05T21:31:55.522Z,15.40
2023-02-05T21:37:00.499Z,17.90
2023-02-05T21:42:02.632Z,20.50
2023-02-05T21:47:04.981Z,21.10
2023-02-05T21:52:08.305Z,18.10
2023-02-05T21:57:10.701Z,14.90
2023-02-05T22:02:12.677Z,14.30
2023-02-05T22:07:15.135Z,17.20
2023-02-05T22:12:18.452Z,17.00
2023-02-05T22:17:22.409Z,16.60
2023-02-05T22:22:24.447Z,15.90
2023-02-05T22:27:27.255Z,19.10
2023-02-05T22:32:32.194Z,19.80
2023-02-05T22:37:34.746Z,16.00
2023-02-05T22:42:36.695Z,16.80
2023-02-05T22:47:38.691Z,21.50
2023-02-05T22:52:40.773Z,25.90
2023-02-05T22:57:43.190Z,22.30
2023-02-05T23:02:46.432Z,20.50
2023-02-05T23:07:49.907Z,13.50
2023-02-05T23:12:52.413Z,17.80
2023-02-05T23:17:54.474Z,18.10
2023-02-05T23:22:56.618Z,20.20
2023-02-05T23:27:58.643Z,21.40
2023-02-05T23:33:01.230Z,22.90
2023-02-05T23:38:03.569Z,25.30
2023-02-05T23:43:06.142Z,22.90
2023-02-05T23:48:10.989Z,19.90
2023-02-05T23:53:13.351Z,16.70
2023-02-05T23:58:23.065Z,17.60
